Terminal Aerodrome Forecast
Issued by NWS

Home | Current Version | Previous Version | Text Only | Print | Product List | Glossary On
Versions: 1 2 3 4 5 6 7 8 9 10 11 12 13 14 15 16 17 18 19 20 21 22 23
000
FTUS45 KGJT 232059 AAB
TAFEGE
TAF AMD
KEGE 232059Z 2321/2418 28015G25KT P6SM SCT100 BKN200
     FM240100 25013G20KT P6SM VCSH BKN070 BKN100
     FM240400 17005KT P6SM VCSH BKN060 BKN090
     FM240800 VRB03KT P6SM BKN060 BKN100=

USA.gov is the U.S. government's official web portal to all federal, state and local government web resources and services.